Terminal Aerodrome Forecast
Issued by NWS

Home | Current Version | Previous Version | Text Only | Print | Product List | Glossary On
Versions: 1 2 3 4 5 6 7 8 9 10 11 12 13 14 15 16 17 18 19 20 21 22 23 24 25 26 27 28 29 30 31
000
FTUS41 KRLX 291130
TAFCKB
TAF
KCKB 291130Z 2912/3012 VRB05KT P6SM -SHRA OVC060
      TEMPO 2912/2913 4SM SHRA
     FM291400 22004KT P6SM BKN060
     FM292000 20004KT P6SM BKN200=

USA.gov is the U.S. government's official web portal to all federal, state and local government web resources and services.